Time;durP1;ratioP1;P1;durP2;ratioP2;P2;SDS_P1;SDS_P2;PMS_P1;PMS_P2;Temp;Humidity;BMP_temperature;BMP_pressure;BME280_temperature;BME280_humidity;BME280_pressure;Samples;Min_cycle;Max_cycle;Signal;HPM_P1;HPM_P2
2024/03/18 00:02:24;;;;;;;12.65;9.05;;;10.20;99.90;;;;;;5015845;28;20119;-93
2024/03/18 00:04:50;;;;;;;13.90;10.60;;;10.10;99.90;;;;;;5024420;28;20167;-95
2024/03/18 00:07:16;;;;;;;15.93;10.73;;;10.10;99.90;;;;;;5030476;28;20025;-93
2024/03/18 00:09:42;;;;;;;14.30;9.93;;;10.00;99.90;;;;;;5028728;28;20522;-94
2024/03/18 00:12:08;;;;;;;11.80;8.95;;;10.00;99.90;;;;;;5017408;28;20065;-90
2024/03/18 00:14:34;;;;;;;13.15;9.15;;;10.00;99.90;;;;;;5018144;28;20053;-93
2024/03/18 00:16:59;;;;;;;12.38;8.82;;;10.00;99.90;;;;;;5021028;28;20498;-93
2024/03/18 00:19:25;;;;;;;13.52;9.00;;;10.00;99.90;;;;;;5036283;28;20033;-92
2024/03/18 00:21:51;;;;;;;14.23;8.75;;;10.00;99.90;;;;;;5033668;28;20097;-92
2024/03/18 00:24:19;;;;;;;13.20;9.50;;;10.00;99.90;;;;;;5018449;28;20033;-93
2024/03/18 00:26:44;;;;;;;16.35;9.82;;;10.00;99.90;;;;;;5018269;28;20161;-93
2024/03/18 00:29:10;;;;;;;14.68;10.20;;;10.00;99.90;;;;;;5017572;28;20519;-94
2024/03/18 00:31:35;;;;;;;11.57;9.93;;;10.00;99.90;;;;;;5015870;28;20026;-92
2024/03/18 00:34:01;;;;;;;18.05;11.20;;;10.00;99.90;;;;;;5037573;28;20504;-93
2024/03/18 00:36:26;;;;;;;17.88;12.32;;;10.00;99.90;;;;;;5036893;28;20038;-91
2024/03/18 00:38:52;;;;;;;15.00;10.45;;;10.00;99.90;;;;;;5033132;28;20060;-93
2024/03/18 00:44:04;;;;;;;12.35;9.77;;;10.00;99.90;;;;;;5022910;28;20053;-93
2024/03/18 00:46:30;;;;;;;16.15;9.55;;;9.90;99.90;;;;;;5023535;28;20145;-93
2024/03/18 00:48:56;;;;;;;15.70;10.48;;;10.00;99.90;;;;;;5035737;28;20083;-94
2024/03/18 00:51:21;;;;;;;12.55;8.85;;;9.90;99.90;;;;;;5032512;28;20029;-93
2024/03/18 00:53:47;;;;;;;10.88;8.15;;;10.00;99.90;;;;;;5019996;28;20033;-93
2024/03/18 00:56:13;;;;;;;12.32;8.27;;;9.90;99.90;;;;;;5037280;28;20041;-92
2024/03/18 00:58:39;;;;;;;13.40;10.32;;;9.80;99.90;;;;;;5036545;28;20029;-92
2024/03/18 01:01:06;;;;;;;13.70;8.63;;;9.90;99.90;;;;;;5030064;28;20013;-93
2024/03/18 01:03:34;;;;;;;15.20;9.02;;;9.90;99.90;;;;;;5036842;28;20029;-94
2024/03/18 01:05:59;;;;;;;17.58;11.88;;;9.90;99.90;;;;;;5037965;28;20032;-92
2024/03/18 01:08:26;;;;;;;15.50;10.20;;;9.90;99.90;;;;;;5037418;28;20037;-93
2024/03/18 01:10:51;;;;;;;17.05;10.00;;;9.90;99.90;;;;;;5038361;28;20405;-93
2024/03/18 01:13:17;;;;;;;12.70;10.15;;;9.90;99.90;;;;;;5038815;28;20034;-92
2024/03/18 01:15:43;;;;;;;10.85;9.18;;;9.90;99.90;;;;;;5039134;28;20022;-93
2024/03/18 01:18:09;;;;;;;11.52;8.73;;;9.90;99.90;;;;;;5038702;28;20217;-93
2024/03/18 01:20:35;;;;;;;10.27;7.85;;;9.90;99.90;;;;;;5037637;28;20040;-94
2024/03/18 01:23:02;;;;;;;11.65;6.38;;;9.80;99.90;;;;;;5031124;28;20021;-94
2024/03/18 01:25:33;;;;;;;10.52;7.90;;;9.80;99.90;;;;;;5036986;28;20033;-93
2024/03/18 01:27:59;;;;;;;9.82;7.50;;;9.80;99.90;;;;;;5035922;28;20029;-93
2024/03/18 01:30:25;;;;;;;12.43;8.38;;;9.80;99.90;;;;;;5029352;28;20037;-94
2024/03/18 01:32:50;;;;;;;12.63;8.25;;;9.80;99.90;;;;;;5027841;28;20598;-93
2024/03/18 01:35:16;;;;;;;11.15;8.65;;;9.80;99.90;;;;;;5036822;28;20033;-92
2024/03/18 01:37:46;;;;;;;10.35;7.60;;;9.80;99.90;;;;;;5035272;28;20022;-94
2024/03/18 01:40:12;;;;;;;13.60;8.48;;;9.80;99.90;;;;;;5035327;28;20037;-93
2024/03/18 01:42:39;;;;;;;12.85;8.63;;;9.90;99.90;;;;;;5036581;28;20021;-95
2024/03/18 01:45:05;;;;;;;11.70;8.23;;;9.80;99.90;;;;;;5037057;28;20059;-94
2024/03/18 01:47:31;;;;;;;12.25;9.23;;;9.80;99.90;;;;;;5026948;28;20021;-94
2024/03/18 01:49:58;;;;;;;12.68;8.07;;;9.80;99.90;;;;;;5025434;28;20046;-93
2024/03/18 01:52:24;;;;;;;9.52;7.28;;;9.80;99.90;;;;;;5016678;28;20033;-93
2024/03/18 01:54:53;;;;;;;15.00;8.18;;;9.80;99.90;;;;;;5026067;28;20096;-93
2024/03/18 01:57:19;;;;;;;11.70;7.22;;;9.70;99.90;;;;;;5032175;28;20033;-91
2024/03/18 01:59:44;;;;;;;15.05;9.40;;;9.60;99.90;;;;;;5035836;28;20025;-94
2024/03/18 02:02:13;;;;;;;12.95;8.57;;;9.60;99.90;;;;;;5034835;28;20048;-93
2024/03/18 02:04:40;;;;;;;12.68;8.32;;;9.70;99.90;;;;;;5035348;28;20100;-92
2024/03/18 02:07:24;;;;;;;11.85;8.65;;;9.70;99.90;;;;;;5035354;28;20036;-93
2024/03/18 02:09:51;;;;;;;12.80;8.85;;;9.80;99.90;;;;;;5035279;28;20026;-92
2024/03/18 02:12:17;;;;;;;12.02;8.43;;;9.80;99.90;;;;;;5031097;28;20033;-91
2024/03/18 02:14:45;;;;;;;11.48;8.55;;;9.80;99.90;;;;;;5035545;28;20026;-92
2024/03/18 02:17:12;;;;;;;13.38;8.38;;;9.80;99.90;;;;;;5035721;28;20113;-93
2024/03/18 02:19:39;;;;;;;12.10;8.93;;;9.90;99.90;;;;;;5033903;28;20033;-91
2024/03/18 02:22:06;;;;;;;10.50;8.90;;;9.80;99.90;;;;;;5035362;28;20053;-94
2024/03/18 02:24:32;;;;;;;;;;;9.90;99.90;;;;;;5036211;28;20491;-92
2024/03/18 02:27:08;;;;;;;14.00;8.68;;;9.90;99.90;;;;;;5034400;28;19916;-93
2024/03/18 02:29:33;;;;;;;13.60;9.82;;;9.80;99.90;;;;;;5035491;28;20045;-92
2024/03/18 02:31:59;;;;;;;13.95;8.85;;;9.80;99.90;;;;;;5034755;28;20036;-93
2024/03/18 02:34:25;;;;;;;15.43;10.35;;;9.70;99.90;;;;;;5031000;28;20032;-94
2024/03/18 02:36:53;;;;;;;15.65;9.82;;;9.70;99.90;;;;;;5021551;28;20105;-93
2024/03/18 02:39:22;;;;;;;18.83;11.52;;;9.60;99.90;;;;;;5013689;28;20032;-94
2024/03/18 02:41:48;;;;;;;14.60;9.55;;;9.60;99.90;;;;;;5023847;28;20056;-95
2024/03/18 02:44:14;;;;;;;13.82;9.20;;;9.50;99.90;;;;;;5034110;28;20029;-93
2024/03/18 02:46:39;;;;;;;17.55;10.30;;;9.50;99.90;;;;;;5034962;28;20021;-91
2024/03/18 02:49:05;;;;;;;16.67;10.10;;;9.60;99.90;;;;;;5034550;28;20033;-93
2024/03/18 02:51:31;;;;;;;17.60;10.20;;;9.60;99.90;;;;;;5034702;28;20025;-91
2024/03/18 02:53:56;;;;;;;21.05;9.32;;;9.60;99.90;;;;;;5034987;28;20476;-94
2024/03/18 02:56:22;;;;;;;16.05;9.68;;;9.60;99.90;;;;;;5039326;28;20041;-92
2024/03/18 02:58:48;;;;;;;13.25;9.57;;;9.60;99.90;;;;;;5034878;28;20097;-92
2024/03/18 03:01:13;;;;;;;13.90;9.98;;;9.60;99.90;;;;;;5034840;28;20025;-91
2024/03/18 03:03:39;;;;;;;13.48;9.18;;;9.60;99.90;;;;;;5028723;28;20022;-93
2024/03/18 03:06:06;;;;;;;20.10;10.40;;;9.50;99.90;;;;;;5015565;28;20128;-93
2024/03/18 03:08:32;;;;;;;12.25;8.68;;;9.60;99.90;;;;;;5013735;28;20508;-92
2024/03/18 03:11:03;;;;;;;13.52;8.85;;;9.60;99.90;;;;;;5031089;28;20044;-91
2024/03/18 03:13:29;;;;;;;13.30;9.05;;;9.60;99.90;;;;;;5031758;28;20033;-94
2024/03/18 03:15:55;;;;;;;14.38;9.23;;;9.60;99.90;;;;;;5039861;28;20022;-93
2024/03/18 03:18:21;;;;;;;14.38;9.60;;;9.60;99.90;;;;;;5024173;28;20037;-93
2024/03/18 03:20:48;;;;;;;15.93;10.00;;;9.70;99.90;;;;;;5018654;28;20014;-93
2024/03/18 03:23:14;;;;;;;15.10;9.75;;;9.60;99.90;;;;;;5018244;28;20429;-93
2024/03/18 03:25:40;;;;;;;12.73;8.25;;;9.70;99.90;;;;;;5036136;28;20029;-92
2024/03/18 03:28:06;;;;;;;13.88;10.18;;;9.70;99.90;;;;;;5038221;28;20033;-93
2024/03/18 03:30:32;;;;;;;16.05;9.88;;;9.70;99.90;;;;;;5031414;28;20051;-92
2024/03/18 03:32:57;;;;;;;18.70;10.43;;;9.70;99.90;;;;;;5035560;28;20029;-91
2024/03/18 03:35:23;;;;;;;16.92;10.00;;;9.70;99.90;;;;;;5038182;28;20037;-93
2024/03/18 03:37:49;;;;;;;13.18;9.32;;;9.70;99.90;;;;;;5038117;28;20414;-93
2024/03/18 03:40:16;;;;;;;14.20;10.00;;;9.70;99.90;;;;;;5037738;28;20051;-92
2024/03/18 03:42:42;;;;;;;16.75;11.02;;;9.80;99.90;;;;;;5038247;28;20018;-94
2024/03/18 03:45:08;;;;;;;17.65;11.50;;;9.70;99.90;;;;;;5039507;28;20029;-94
2024/03/18 03:47:33;;;;;;;15.15;10.95;;;9.70;99.90;;;;;;5030350;28;20213;-93
2024/03/18 03:49:59;;;;;;;15.20;10.13;;;9.70;99.90;;;;;;5031439;28;20037;-93
2024/03/18 03:52:25;;;;;;;16.88;10.77;;;9.70;99.90;;;;;;5018224;28;20026;-94
2024/03/18 03:54:50;;;;;;;17.45;10.40;;;9.80;99.90;;;;;;5027640;28;20051;-93
2024/03/18 03:57:16;;;;;;;15.27;9.57;;;9.80;99.90;;;;;;5032425;28;20026;-93
2024/03/18 03:59:42;;;;;;;16.45;11.30;;;9.80;99.90;;;;;;5034909;28;20423;-95
2024/03/18 04:02:10;;;;;;;13.52;8.95;;;9.70;99.90;;;;;;5029575;28;20427;-93
2024/03/18 04:04:35;;;;;;;13.63;9.60;;;9.70;99.90;;;;;;5035283;28;20492;-90
2024/03/18 04:07:01;;;;;;;13.55;9.55;;;9.70;99.90;;;;;;5034931;28;20052;-93
2024/03/18 04:09:27;;;;;;;13.55;8.52;;;9.70;99.90;;;;;;5029828;28;20037;-93
2024/03/18 04:11:53;;;;;;;14.77;9.95;;;9.80;99.90;;;;;;5038191;28;20022;-93
2024/03/18 04:14:19;;;;;;;16.83;9.70;;;9.70;99.90;;;;;;5029867;28;20052;-94
2024/03/18 04:16:45;;;;;;;14.90;9.82;;;9.60;99.90;;;;;;5028839;28;20041;-94
2024/03/18 04:19:12;;;;;;;17.00;10.85;;;9.60;99.90;;;;;;5030328;28;20664;-92
2024/03/18 04:21:38;;;;;;;17.70;12.90;;;9.50;99.90;;;;;;5036871;28;20029;-93
2024/03/18 04:24:03;;;;;;;20.27;12.05;;;9.50;99.90;;;;;;5037992;28;20112;-94
2024/03/18 04:26:29;;;;;;;20.10;12.50;;;9.50;99.90;;;;;;5039206;28;20060;-92
2024/03/18 04:28:55;;;;;;;18.48;11.35;;;9.50;99.90;;;;;;5039277;28;20045;-93
2024/03/18 04:31:21;;;;;;;16.83;11.30;;;9.60;99.90;;;;;;5037489;28;20035;-93
2024/03/18 04:33:50;;;;;;;19.08;11.45;;;9.60;99.90;;;;;;5029560;28;20018;-94
2024/03/18 04:36:16;;;;;;;17.70;10.18;;;9.70;99.90;;;;;;5031862;28;20029;-92
2024/03/18 04:38:42;;;;;;;20.40;11.32;;;9.60;99.90;;;;;;5034966;28;20060;-93
2024/03/18 04:41:09;;;;;;;17.83;11.15;;;9.70;99.90;;;;;;5036829;28;20022;-93
2024/03/18 04:43:34;;;;;;;18.33;10.57;;;9.70;99.90;;;;;;5037500;28;20036;-92
2024/03/18 04:46:00;;;;;;;17.05;11.38;;;9.60;99.90;;;;;;5035516;28;20030;-95
2024/03/18 04:48:26;;;;;;;16.73;10.45;;;9.60;99.90;;;;;;5035276;28;20403;-93
2024/03/18 04:50:51;;;;;;;18.45;11.32;;;9.60;99.90;;;;;;5034475;28;20384;-92
2024/03/18 04:53:17;;;;;;;20.80;12.23;;;9.60;99.90;;;;;;5034954;28;20043;-93
2024/03/18 04:55:43;;;;;;;18.15;10.65;;;9.60;99.90;;;;;;5029723;28;20037;-92
2024/03/18 04:58:08;;;;;;;19.20;10.52;;;9.60;99.90;;;;;;5033544;28;20558;-94
2024/03/18 05:00:34;;;;;;;18.17;11.18;;;9.50;99.90;;;;;;5038474;28;20274;-94
2024/03/18 05:03:00;;;;;;;21.27;12.77;;;9.50;99.90;;;;;;5030880;28;20025;-92
2024/03/18 05:05:26;;;;;;;23.05;13.25;;;9.60;99.90;;;;;;5037637;28;20025;-94
2024/03/18 05:07:53;;;;;;;17.73;11.07;;;9.60;99.90;;;;;;5033237;28;20028;-94
2024/03/18 05:10:21;;;;;;;19.70;12.63;;;9.60;99.90;;;;;;5026413;28;20186;-94
2024/03/18 05:12:48;;;;;;;17.63;11.57;;;9.50;99.90;;;;;;5026094;28;20037;-94
2024/03/18 05:15:14;;;;;;;20.45;13.40;;;9.50;99.90;;;;;;5016831;28;20090;-92
2024/03/18 05:17:39;;;;;;;18.73;12.68;;;9.60;99.90;;;;;;5029486;28;20061;-92
2024/03/18 05:20:15;;;;;;;26.38;13.45;;;9.50;99.90;;;;;;5032249;28;20017;-92
2024/03/18 05:22:40;;;;;;;20.92;11.52;;;9.50;99.90;;;;;;5032507;28;20021;-92
2024/03/18 05:25:09;;;;;;;18.02;12.32;;;9.50;99.90;;;;;;5035971;28;20079;-93
2024/03/18 05:27:36;;;;;;;24.05;13.65;;;9.50;99.90;;;;;;5036985;28;20024;-91
2024/03/18 05:30:02;;;;;;;24.23;13.55;;;9.60;99.90;;;;;;5039538;28;20029;-92
2024/03/18 05:32:28;;;;;;;23.30;13.43;;;9.60;99.90;;;;;;5035460;28;20495;-92
2024/03/18 05:34:53;;;;;;;19.15;13.68;;;9.60;99.90;;;;;;5035765;28;20025;-92
2024/03/18 05:37:19;;;;;;;20.45;14.38;;;9.50;99.90;;;;;;5035961;28;20017;-91
2024/03/18 05:39:45;;;;;;;20.85;13.90;;;9.60;99.90;;;;;;5034521;28;20117;-91
2024/03/18 05:42:11;;;;;;;20.58;13.23;;;9.50;99.90;;;;;;5034795;28;20036;-93
2024/03/18 05:44:37;;;;;;;23.45;13.38;;;9.50;99.90;;;;;;5031040;28;20025;-92
2024/03/18 05:47:03;;;;;;;21.45;12.63;;;9.50;99.90;;;;;;5031965;28;20068;-92
2024/03/18 05:49:29;;;;;;;23.20;13.77;;;9.50;99.90;;;;;;5029287;28;20094;-91
2024/03/18 05:51:56;;;;;;;24.55;13.82;;;9.60;99.90;;;;;;5027784;28;20597;-94
2024/03/18 05:54:22;;;;;;;23.63;14.23;;;9.60;99.90;;;;;;5030803;28;20036;-91
2024/03/18 05:56:48;;;;;;;22.10;13.63;;;9.60;99.90;;;;;;5030203;28;20394;-92
2024/03/18 05:59:14;;;;;;;24.40;13.18;;;9.60;99.90;;;;;;5021113;28;20037;-92
2024/03/18 06:01:41;;;;;;;23.25;14.18;;;9.60;99.90;;;;;;5030282;28;20017;-93
2024/03/18 06:04:07;;;;;;;20.83;12.50;;;9.60;99.90;;;;;;5035306;28;20021;-93
2024/03/18 06:06:33;;;;;;;20.27;13.10;;;9.60;99.90;;;;;;5035703;28;20021;-93
2024/03/18 06:09:03;;;;;;;17.50;12.27;;;9.60;99.90;;;;;;5035143;28;20021;-93
2024/03/18 06:11:28;;;;;;;19.48;11.95;;;9.50;99.90;;;;;;5031625;28;20022;-94
2024/03/18 06:13:55;;;;;;;22.77;14.43;;;9.50;99.90;;;;;;5029002;28;20051;-91
2024/03/18 06:16:21;;;;;;;22.00;13.73;;;9.40;99.90;;;;;;5035037;28;20030;-94
2024/03/18 06:18:49;;;;;;;22.00;14.30;;;9.50;99.90;;;;;;5031084;28;20017;-92
2024/03/18 06:21:18;;;;;;;20.58;14.60;;;9.50;99.90;;;;;;5032795;28;20025;-94
2024/03/18 06:23:50;;;;;;;29.90;18.05;;;9.50;99.90;;;;;;5030646;28;20013;-94
2024/03/18 06:26:17;;;;;;;25.10;14.65;;;9.60;99.90;;;;;;5031016;28;20354;-93
2024/03/18 06:28:44;;;;;;;31.98;20.70;;;9.50;99.90;;;;;;5030674;28;20100;-92
2024/03/18 06:31:11;;;;;;;20.88;13.38;;;9.60;99.90;;;;;;5035096;28;20029;-93
2024/03/18 06:33:36;;;;;;;23.65;15.50;;;9.60;99.90;;;;;;5034607;28;20057;-93
2024/03/18 06:36:09;;;;;;;25.98;16.13;;;9.60;99.90;;;;;;5035593;28;20032;-93
2024/03/18 06:38:35;;;;;;;27.88;14.40;;;9.60;99.90;;;;;;5032562;28;20041;-89
2024/03/18 06:41:00;;;;;;;29.25;19.98;;;9.60;99.90;;;;;;5026539;28;20018;-94
2024/03/18 06:43:26;;;;;;;23.63;16.25;;;9.70;99.90;;;;;;5019393;28;20026;-92
2024/03/18 06:45:52;;;;;;;24.50;16.35;;;9.60;99.90;;;;;;5034513;28;20424;-92
2024/03/18 06:48:18;;;;;;;27.10;16.25;;;9.60;99.90;;;;;;5035234;28;20022;-93
2024/03/18 06:50:43;;;;;;;23.92;15.73;;;9.60;99.90;;;;;;5035006;28;20029;-93
2024/03/18 06:53:09;;;;;;;24.63;14.70;;;9.70;99.90;;;;;;5035820;28;20029;-92
2024/03/18 06:55:35;;;;;;;20.42;14.35;;;9.70;99.90;;;;;;5032460;28;20094;-91
2024/03/18 06:58:04;;;;;;;25.38;18.02;;;9.70;99.90;;;;;;5022544;28;20570;-94
2024/03/18 07:00:30;;;;;;;26.10;15.95;;;9.80;99.90;;;;;;5022831;28;20025;-91
2024/03/18 07:02:56;;;;;;;25.02;16.83;;;9.80;99.90;;;;;;5024449;28;20042;-94
2024/03/18 07:05:22;;;;;;;25.02;17.75;;;9.80;99.90;;;;;;5015473;28;20025;-93
2024/03/18 07:07:49;;;;;;;27.17;19.42;;;9.70;99.90;;;;;;5025580;28;20107;-94
2024/03/18 07:10:15;;;;;;;25.35;15.07;;;9.70;99.90;;;;;;5033968;28;20496;-90
2024/03/18 07:12:42;;;;;;;27.65;15.85;;;9.70;99.90;;;;;;5030607;28;20034;-94
2024/03/18 07:15:10;;;;;;;24.55;15.02;;;9.70;99.90;;;;;;5032901;28;20031;-93
2024/03/18 07:17:36;;;;;;;24.73;15.13;;;9.60;99.90;;;;;;5034165;28;20044;-94
2024/03/18 07:20:06;;;;;;;30.20;20.60;;;9.70;99.90;;;;;;5035196;28;20029;-93
2024/03/18 07:22:32;;;;;;;25.65;16.48;;;9.70;99.90;;;;;;5018867;28;20026;-94
2024/03/18 07:24:59;;;;;;;25.17;15.95;;;9.70;99.90;;;;;;5034775;28;20026;-93
2024/03/18 07:27:25;;;;;;;26.80;14.73;;;9.70;99.90;;;;;;5030243;28;20026;-95
2024/03/18 07:29:53;;;;;;;26.17;14.50;;;9.70;99.90;;;;;;5036189;28;20029;-92
2024/03/18 07:32:19;;;;;;;27.75;15.25;;;9.70;99.90;;;;;;5034285;28;20085;-92
2024/03/18 07:34:45;;;;;;;23.33;15.38;;;9.70;99.90;;;;;;5032940;28;20061;-92
2024/03/18 07:37:10;;;;;;;26.70;15.88;;;9.60;99.90;;;;;;5038325;28;20025;-93
2024/03/18 07:39:36;;;;;;;39.38;20.67;;;9.70;99.90;;;;;;5041588;28;20041;-93
2024/03/18 07:42:03;;;;;;;39.42;21.65;;;9.70;99.90;;;;;;5036084;28;20046;-92
2024/03/18 07:44:28;;;;;;;34.83;19.48;;;9.70;99.90;;;;;;5034362;28;20514;-93
2024/03/18 07:46:54;;;;;;;29.10;17.25;;;9.80;99.90;;;;;;5028722;28;20037;-93
2024/03/18 07:49:19;;;;;;;27.48;15.23;;;9.80;99.90;;;;;;5034873;28;20025;-94
2024/03/18 07:51:48;;;;;;;28.70;15.68;;;9.80;99.90;;;;;;5033875;28;20412;-92
2024/03/18 07:54:15;;;;;;;24.92;15.63;;;9.90;99.90;;;;;;5033309;28;20037;-94
2024/03/18 07:56:41;;;;;;;26.70;15.98;;;9.80;99.90;;;;;;5031795;28;20487;-94
2024/03/18 07:59:07;;;;;;;28.63;16.95;;;9.80;99.90;;;;;;5025506;28;20115;-95
2024/03/18 08:01:34;;;;;;;31.48;18.98;;;9.90;99.90;;;;;;5024424;28;20033;-93
2024/03/18 08:04:00;;;;;;;23.92;15.07;;;9.90;99.90;;;;;;5017987;28;20033;-93
2024/03/18 08:06:26;;;;;;;24.85;16.90;;;9.90;99.90;;;;;;5017440;28;20512;-94
2024/03/18 08:08:51;;;;;;;28.70;15.75;;;9.90;99.90;;;;;;5017344;28;20081;-93
2024/03/18 08:11:17;;;;;;;28.85;16.02;;;9.90;99.90;;;;;;5026664;28;20455;-92
2024/03/18 08:13:43;;;;;;;25.73;15.15;;;9.90;99.90;;;;;;5028830;28;20022;-91
2024/03/18 08:16:09;;;;;;;25.67;17.17;;;10.00;99.90;;;;;;5025697;28;20030;-92
2024/03/18 08:18:34;;;;;;;29.65;16.80;;;9.90;99.90;;;;;;5016816;28;20030;-92
2024/03/18 08:21:00;;;;;;;25.98;17.33;;;10.00;99.90;;;;;;5037761;28;20036;-94
2024/03/18 08:23:25;;;;;;;27.35;16.50;;;10.10;99.90;;;;;;5037453;28;20032;-92
2024/03/18 08:25:51;;;;;;;23.60;15.40;;;10.10;99.90;;;;;;5037193;28;20046;-93
2024/03/18 08:28:17;;;;;;;33.67;18.08;;;10.20;99.90;;;;;;5038131;28;20545;-92
2024/03/18 08:30:43;;;;;;;30.83;17.02;;;10.20;99.90;;;;;;5037183;28;20044;-93
2024/03/18 08:33:09;;;;;;;22.15;13.90;;;10.20;99.90;;;;;;5037424;28;20082;-92
2024/03/18 08:35:37;;;;;;;19.65;12.65;;;10.30;99.90;;;;;;5038135;28;20664;-92
2024/03/18 08:38:03;;;;;;;16.13;9.93;;;10.30;99.90;;;;;;5037329;28;20056;-94
2024/03/18 08:40:29;;;;;;;15.48;10.25;;;10.40;99.90;;;;;;5036832;28;20027;-93
2024/03/18 08:42:54;;;;;;;17.23;9.80;;;10.40;99.90;;;;;;5036808;28;20039;-93
2024/03/18 08:45:20;;;;;;;14.55;8.63;;;10.40;99.90;;;;;;5037027;28;20014;-92
2024/03/18 08:47:45;;;;;;;18.65;10.63;;;10.40;99.90;;;;;;5028142;28;20029;-93
2024/03/18 08:50:11;;;;;;;18.33;9.30;;;10.30;99.90;;;;;;5036392;28;20021;-92
2024/03/18 08:52:37;;;;;;;14.63;8.63;;;10.30;99.90;;;;;;5035875;28;20040;-93
2024/03/18 08:55:06;;;;;;;14.90;7.78;;;10.30;99.90;;;;;;5032314;28;20026;-94
2024/03/18 08:57:32;;;;;;;11.98;8.52;;;10.30;99.90;;;;;;5033532;28;20080;-93
2024/03/18 08:59:58;;;;;;;14.52;7.78;;;10.40;99.90;;;;;;5035977;28;20025;-91
2024/03/18 09:02:24;;;;;;;16.27;8.20;;;10.40;99.90;;;;;;5036206;28;20115;-93
2024/03/18 09:04:49;;;;;;;11.23;7.15;;;10.40;99.90;;;;;;5036752;28;20128;-94
2024/03/18 09:07:16;;;;;;;11.07;5.20;;;10.40;99.90;;;;;;5035037;28;20824;-93
2024/03/18 09:09:41;;;;;;;11.18;6.35;;;10.40;99.90;;;;;;5033626;28;20033;-94
2024/03/18 09:12:07;;;;;;;15.80;8.23;;;10.30;99.90;;;;;;5036022;28;20510;-93
2024/03/18 09:14:33;;;;;;;14.07;7.93;;;10.30;99.90;;;;;;5036418;28;20032;-92
2024/03/18 09:17:01;;;;;;;14.15;8.80;;;10.40;99.90;;;;;;5036698;28;20034;-93
2024/03/18 09:19:28;;;;;;;16.05;8.73;;;10.40;99.90;;;;;;5028832;28;20613;-92
2024/03/18 09:21:54;;;;;;;11.65;7.20;;;10.40;99.90;;;;;;5034612;28;20029;-92
2024/03/18 09:24:19;;;;;;;15.13;7.95;;;10.40;99.90;;;;;;5029515;28;20057;-94
2024/03/18 09:26:46;;;;;;;10.88;8.30;;;10.50;99.90;;;;;;5016249;28;20050;-93
2024/03/18 09:29:12;;;;;;;13.23;8.25;;;10.50;99.90;;;;;;5016062;28;20088;-92
2024/03/18 09:31:39;;;;;;;13.32;8.77;;;10.60;99.90;;;;;;5015592;28;20018;-93
2024/03/18 09:34:06;;;;;;;12.93;9.30;;;10.60;99.90;;;;;;5015195;28;20391;-93
2024/03/18 09:36:33;;;;;;;11.52;9.00;;;10.60;99.90;;;;;;5016768;28;20018;-93
2024/03/18 09:38:59;;;;;;;12.70;8.23;;;10.60;99.90;;;;;;5028294;28;20033;-93
2024/03/18 09:41:26;;;;;;;13.20;7.78;;;10.60;99.90;;;;;;5027187;28;20028;-93
2024/03/18 09:43:52;;;;;;;13.65;7.90;;;10.70;99.90;;;;;;5022304;28;20072;-93
2024/03/18 09:46:21;;;;;;;11.40;7.97;;;10.70;99.90;;;;;;5036018;28;20022;-93
2024/03/18 09:48:47;;;;;;;13.88;8.27;;;10.80;99.90;;;;;;5035758;28;20048;-93
2024/03/18 09:51:17;;;;;;;11.00;6.97;;;10.80;99.90;;;;;;5036018;28;20369;-93
2024/03/18 09:53:46;;;;;;;11.70;6.45;;;10.80;99.90;;;;;;5018579;28;20036;-93
2024/03/18 09:56:16;;;;;;;12.23;7.72;;;10.70;99.90;;;;;;5043969;28;20049;-91
2024/03/18 09:58:42;;;;;;;12.07;7.20;;;10.70;99.90;;;;;;5040851;28;20022;-91
2024/03/18 10:01:11;;;;;;;16.20;8.95;;;10.70;99.90;;;;;;5038173;28;20026;-90
2024/03/18 10:03:42;;;;;;;12.30;8.65;;;10.80;99.90;;;;;;5035111;28;20018;-92
2024/03/18 10:06:11;;;;;;;12.45;7.07;;;10.80;99.90;;;;;;5029090;28;20081;-91
2024/03/18 10:08:39;;;;;;;12.88;7.93;;;10.80;99.90;;;;;;5034204;28;20026;-93
2024/03/18 10:11:05;;;;;;;13.85;8.88;;;10.80;99.90;;;;;;5036396;28;20138;-92
2024/03/18 10:13:31;;;;;;;13.18;8.57;;;10.80;99.90;;;;;;5034669;28;20047;-93
2024/03/18 10:15:57;;;;;;;12.65;8.80;;;10.70;99.90;;;;;;5025440;28;20034;-93
2024/03/18 10:18:25;;;;;;;11.45;7.50;;;10.80;99.90;;;;;;5014091;28;20492;-92
2024/03/18 10:20:52;;;;;;;12.10;7.55;;;10.80;99.90;;;;;;5015273;28;20025;-92
2024/03/18 10:23:18;;;;;;;12.52;8.43;;;10.80;99.90;;;;;;5032125;28;20022;-93
2024/03/18 10:25:44;;;;;;;14.43;8.70;;;10.90;99.90;;;;;;5035488;28;20029;-93
2024/03/18 10:28:10;;;;;;;15.23;9.80;;;10.90;99.90;;;;;;5031611;28;20060;-92
2024/03/18 10:30:37;;;;;;;15.57;9.38;;;10.90;99.90;;;;;;5033787;28;20044;-93
2024/03/18 10:33:03;;;;;;;;;;;10.90;99.90;;;;;;5043252;28;20033;-93
2024/03/18 10:35:33;;;;;;;16.42;9.00;;;10.90;99.90;;;;;;5035609;28;19905;-93
2024/03/18 10:38:00;;;;;;;18.95;10.05;;;11.00;99.90;;;;;;5031608;28;20021;-91
2024/03/18 10:40:39;;;;;;;19.90;10.20;;;11.10;99.90;;;;;;5029462;28;20056;-91
2024/03/18 10:43:08;;;;;;;19.02;10.13;;;11.00;99.90;;;;;;5033645;28;20030;-93
2024/03/18 10:45:40;;;;;;;21.00;11.93;;;10.90;99.90;;;;;;5034530;28;20032;-92
2024/03/18 10:48:08;;;;;;;22.63;11.25;;;11.00;99.90;;;;;;5038089;28;20021;-93
2024/03/18 10:50:34;;;;;;;20.55;11.10;;;11.00;99.90;;;;;;5039614;28;20022;-93
2024/03/18 10:53:01;;;;;;;26.17;11.77;;;11.10;99.90;;;;;;5018782;28;20034;-94
2024/03/18 10:55:30;;;;;;;25.63;13.27;;;11.30;99.90;;;;;;5030338;28;20060;-92
2024/03/18 10:57:59;;;;;;;20.75;11.40;;;11.40;99.90;;;;;;5031252;28;20033;-93
2024/03/18 11:00:27;;;;;;;27.02;13.52;;;11.30;99.90;;;;;;5033971;28;20108;-92
2024/03/18 11:02:58;;;;;;;31.00;13.15;;;11.40;99.90;;;;;;5034891;28;20032;-93
2024/03/18 11:05:33;;;;;;;29.08;12.77;;;11.50;99.90;;;;;;5035305;28;20025;-92
2024/03/18 11:08:06;;;;;;;30.15;15.05;;;11.40;99.90;;;;;;5032407;28;20041;-93
2024/03/18 11:10:35;;;;;;;31.00;14.68;;;11.40;99.90;;;;;;5032048;28;20056;-94
2024/03/18 11:13:13;;;;;;;28.23;14.18;;;11.40;99.90;;;;;;5031502;28;20041;-92
2024/03/18 11:15:59;;;;;;;38.28;14.68;;;11.60;99.90;;;;;;5030131;28;20069;-92
2024/03/18 11:18:29;;;;;;;32.38;14.00;;;11.50;99.90;;;;;;5002316;28;20048;-92
2024/03/18 11:20:58;;;;;;;32.88;15.13;;;11.50;99.90;;;;;;5030857;28;20057;-91
2024/03/18 11:23:32;;;;;;;27.23;14.10;;;11.60;99.90;;;;;;5034304;28;20018;-94
2024/03/18 11:26:04;;;;;;;32.40;15.82;;;11.70;99.90;;;;;;5032254;28;20022;-91
2024/03/18 11:28:37;;;;;;;35.67;14.35;;;11.70;99.90;;;;;;5031463;28;20049;-94
2024/03/18 11:31:04;;;;;;;46.20;15.57;;;11.60;99.90;;;;;;5024352;28;20026;-94
2024/03/18 11:33:33;;;;;;;31.70;15.82;;;11.80;99.90;;;;;;5023432;28;20033;-93
2024/03/18 11:36:02;;;;;;;29.52;15.15;;;11.80;99.90;;;;;;5038574;28;20025;-95
2024/03/18 11:38:29;;;;;;;31.13;16.55;;;11.90;99.90;;;;;;5040007;28;20076;-95
2024/03/18 11:40:55;;;;;;;27.80;15.23;;;12.10;99.90;;;;;;5022011;28;20037;-94
2024/03/18 11:43:21;;;;;;;32.47;15.00;;;12.20;99.90;;;;;;5037227;28;20021;-94
2024/03/18 11:45:48;;;;;;;34.13;16.83;;;12.20;99.90;;;;;;5031018;28;20041;-95
2024/03/18 11:48:15;;;;;;;31.35;14.40;;;12.10;99.90;;;;;;5036317;28;20017;-94
2024/03/18 11:50:40;;;;;;;33.60;18.42;;;12.10;99.90;;;;;;5036215;28;20017;-92
2024/03/18 11:53:08;;;;;;;29.60;14.90;;;12.00;99.90;;;;;;5036907;28;20511;-95
2024/03/18 11:55:38;;;;;;;30.88;15.38;;;12.00;99.90;;;;;;5037705;28;20087;-94
2024/03/18 11:58:05;;;;;;;29.77;15.55;;;12.00;99.90;;;;;;5034695;28;20163;-95
2024/03/18 12:00:36;;;;;;;33.72;16.60;;;11.90;99.90;;;;;;5034740;28;20067;-95
2024/03/18 12:03:04;;;;;;;39.72;23.02;;;11.90;99.90;;;;;;5036011;28;20392;-93
2024/03/18 12:05:31;;;;;;;30.40;14.77;;;12.00;99.90;;;;;;5034897;28;20018;-94
2024/03/18 12:08:00;;;;;;;35.58;16.38;;;12.10;99.90;;;;;;5033717;28;20491;-95
2024/03/18 12:10:26;;;;;;;34.67;17.85;;;12.10;99.90;;;;;;5014958;28;20033;-94
2024/03/18 12:12:52;;;;;;;36.83;15.85;;;12.30;99.90;;;;;;5025742;28;20100;-92
2024/03/18 12:15:18;;;;;;;40.25;19.23;;;12.30;99.90;;;;;;5026561;28;20107;-93
2024/03/18 12:17:45;;;;;;;41.05;18.08;;;12.50;99.90;;;;;;5022490;28;20025;-93
2024/03/18 12:20:28;;;;;;;35.22;18.55;;;12.50;99.90;;;;;;5019868;28;20044;-94
2024/03/18 12:23:03;;;;;;;37.85;17.95;;;12.80;99.90;;;;;;5023889;28;20029;-93
2024/03/18 12:31:12;;;;;;;32.92;16.10;;;13.30;99.90;;;;;;5028330;28;20370;-93
2024/03/18 12:33:40;;;;;;;34.67;17.05;;;13.10;99.90;;;;;;5025401;28;20022;-93
2024/03/18 12:36:16;;;;;;;28.83;16.23;;;13.30;99.90;;;;;;5023227;28;20034;-95
2024/03/18 12:38:43;;;;;;;34.38;15.98;;;13.30;99.90;;;;;;5025924;28;20030;-94
2024/03/18 12:41:20;;;;;;;60.72;54.30;;;13.40;99.90;;;;;;5026438;28;20047;-94
2024/03/18 12:43:46;;;;;;;38.08;25.05;;;13.20;99.90;;;;;;5025471;28;20384;-94
2024/03/18 12:46:14;;;;;;;28.48;16.33;;;13.40;99.90;;;;;;5022040;28;20025;-93